sensor_id;sensor_type;location;lat;lon;timestamp;P1;durP1;ratioP1;P2;durP2;ratioP2
2636;SDS011;1328;52.486;9.860;2022-08-01T00:01:56;11.20;;;9.80;;
2636;SDS011;1328;52.486;9.860;2022-08-01T00:04:22;10.37;;;9.37;;
2636;SDS011;1328;52.486;9.860;2022-08-01T00:06:48;11.30;;;10.30;;
2636;SDS011;1328;52.486;9.860;2022-08-01T00:09:14;14.50;;;9.67;;
2636;SDS011;1328;52.486;9.860;2022-08-01T00:11:40;11.40;;;10.17;;
2636;SDS011;1328;52.486;9.860;2022-08-01T00:14:07;11.07;;;8.77;;
2636;SDS011;1328;52.486;9.860;2022-08-01T00:16:34;8.60;;;7.80;;
2636;SDS011;1328;52.486;9.860;2022-08-01T00:19:00;9.00;;;8.20;;
2636;SDS011;1328;52.486;9.860;2022-08-01T00:21:26;9.67;;;8.73;;
2636;SDS011;1328;52.486;9.860;2022-08-01T00:23:52;9.50;;;8.40;;
2636;SDS011;1328;52.486;9.860;2022-08-01T00:26:19;10.40;;;8.60;;
2636;SDS011;1328;52.486;9.860;2022-08-01T00:28:45;9.60;;;8.70;;
2636;SDS011;1328;52.486;9.860;2022-08-01T00:31:11;11.20;;;8.43;;
2636;SDS011;1328;52.486;9.860;2022-08-01T00:33:37;10.63;;;9.53;;
2636;SDS011;1328;52.486;9.860;2022-08-01T00:36:03;10.77;;;9.10;;
2636;SDS011;1328;52.486;9.860;2022-08-01T00:38:29;9.53;;;8.63;;
2636;SDS011;1328;52.486;9.860;2022-08-01T00:40:56;11.30;;;8.90;;
2636;SDS011;1328;52.486;9.860;2022-08-01T00:43:22;9.27;;;8.30;;
2636;SDS011;1328;52.486;9.860;2022-08-01T00:45:48;12.43;;;9.20;;
2636;SDS011;1328;52.486;9.860;2022-08-01T00:48:14;10.13;;;9.10;;
2636;SDS011;1328;52.486;9.860;2022-08-01T00:50:40;11.20;;;10.10;;
2636;SDS011;1328;52.486;9.860;2022-08-01T00:53:06;12.90;;;9.50;;
2636;SDS011;1328;52.486;9.860;2022-08-01T00:55:33;11.67;;;10.37;;
2636;SDS011;1328;52.486;9.860;2022-08-01T00:57:59;11.57;;;10.37;;
2636;SDS011;1328;52.486;9.860;2022-08-01T01:00:25;10.83;;;9.70;;
2636;SDS011;1328;52.486;9.860;2022-08-01T01:02:52;12.70;;;11.40;;
2636;SDS011;1328;52.486;9.860;2022-08-01T01:05:18;13.20;;;11.23;;
2636;SDS011;1328;52.486;9.860;2022-08-01T01:15:19;12.70;;;11.40;;
2636;SDS011;1328;52.486;9.860;2022-08-01T01:20:13;13.70;;;11.00;;
2636;SDS011;1328;52.486;9.860;2022-08-01T01:30:22;14.80;;;12.33;;
2636;SDS011;1328;52.486;9.860;2022-08-01T01:32:49;13.63;;;11.33;;
2636;SDS011;1328;52.486;9.860;2022-08-01T01:35:21;11.97;;;10.10;;
2636;SDS011;1328;52.486;9.860;2022-08-01T01:37:48;13.97;;;10.50;;
2636;SDS011;1328;52.486;9.860;2022-08-01T01:40:15;12.83;;;10.83;;
2636;SDS011;1328;52.486;9.860;2022-08-01T01:42:43;15.60;;;9.50;;
2636;SDS011;1328;52.486;9.860;2022-08-01T01:45:09;13.03;;;9.80;;
2636;SDS011;1328;52.486;9.860;2022-08-01T01:47:36;11.50;;;9.07;;
2636;SDS011;1328;52.486;9.860;2022-08-01T01:50:02;13.93;;;8.47;;
2636;SDS011;1328;52.486;9.860;2022-08-01T01:52:29;9.83;;;8.50;;
2636;SDS011;1328;52.486;9.860;2022-08-01T01:54:57;9.20;;;8.20;;
2636;SDS011;1328;52.486;9.860;2022-08-01T01:57:24;12.83;;;8.40;;
2636;SDS011;1328;52.486;9.860;2022-08-01T01:59:50;8.93;;;7.10;;
2636;SDS011;1328;52.486;9.860;2022-08-01T02:02:17;8.57;;;7.77;;
2636;SDS011;1328;52.486;9.860;2022-08-01T02:04:45;10.20;;;8.33;;
2636;SDS011;1328;52.486;9.860;2022-08-01T02:07:12;9.00;;;8.10;;
2636;SDS011;1328;52.486;9.860;2022-08-01T02:09:40;8.50;;;7.70;;
2636;SDS011;1328;52.486;9.860;2022-08-01T02:12:08;8.60;;;7.80;;
2636;SDS011;1328;52.486;9.860;2022-08-01T02:14:35;8.50;;;7.70;;
2636;SDS011;1328;52.486;9.860;2022-08-01T02:17:05;8.17;;;7.37;;
2636;SDS011;1328;52.486;9.860;2022-08-01T02:19:34;8.70;;;7.27;;
2636;SDS011;1328;52.486;9.860;2022-08-01T02:22:01;7.90;;;7.10;;
2636;SDS011;1328;52.486;9.860;2022-08-01T02:27:09;9.60;;;8.90;;
2636;SDS011;1328;52.486;9.860;2022-08-01T02:29:58;11.30;;;10.40;;
2636;SDS011;1328;52.486;9.860;2022-08-01T02:32:30;11.77;;;10.97;;
2636;SDS011;1328;52.486;9.860;2022-08-01T02:34:57;14.50;;;13.50;;
2636;SDS011;1328;52.486;9.860;2022-08-01T02:37:26;14.27;;;13.37;;
2636;SDS011;1328;52.486;9.860;2022-08-01T02:39:53;15.20;;;14.20;;
2636;SDS011;1328;52.486;9.860;2022-08-01T02:42:19;16.33;;;15.10;;
2636;SDS011;1328;52.486;9.860;2022-08-01T02:44:46;16.07;;;15.07;;
2636;SDS011;1328;52.486;9.860;2022-08-01T02:47:13;18.20;;;16.80;;
2636;SDS011;1328;52.486;9.860;2022-08-01T02:49:45;17.63;;;16.50;;
2636;SDS011;1328;52.486;9.860;2022-08-01T02:52:15;19.20;;;17.90;;
2636;SDS011;1328;52.486;9.860;2022-08-01T02:54:41;17.60;;;16.50;;
2636;SDS011;1328;52.486;9.860;2022-08-01T02:57:09;16.97;;;15.87;;
2636;SDS011;1328;52.486;9.860;2022-08-01T02:59:36;17.83;;;16.53;;
2636;SDS011;1328;52.486;9.860;2022-08-01T03:02:03;18.40;;;17.10;;
2636;SDS011;1328;52.486;9.860;2022-08-01T03:04:30;18.23;;;17.00;;
2636;SDS011;1328;52.486;9.860;2022-08-01T03:06:58;18.97;;;17.50;;
2636;SDS011;1328;52.486;9.860;2022-08-01T03:09:26;20.33;;;18.63;;
2636;SDS011;1328;52.486;9.860;2022-08-01T03:11:53;20.70;;;19.30;;
2636;SDS011;1328;52.486;9.860;2022-08-01T03:14:21;20.83;;;19.33;;
2636;SDS011;1328;52.486;9.860;2022-08-01T03:16:49;20.53;;;18.80;;
2636;SDS011;1328;52.486;9.860;2022-08-01T03:19:17;20.77;;;19.30;;
2636;SDS011;1328;52.486;9.860;2022-08-01T03:21:44;20.87;;;19.37;;
2636;SDS011;1328;52.486;9.860;2022-08-01T03:24:10;23.93;;;22.13;;
2636;SDS011;1328;52.486;9.860;2022-08-01T03:26:37;23.47;;;21.67;;
2636;SDS011;1328;52.486;9.860;2022-08-01T03:29:05;24.13;;;22.03;;
2636;SDS011;1328;52.486;9.860;2022-08-01T03:31:32;23.93;;;22.07;;
2636;SDS011;1328;52.486;9.860;2022-08-01T03:33:59;22.90;;;21.20;;
2636;SDS011;1328;52.486;9.860;2022-08-01T03:36:26;22.00;;;20.40;;
2636;SDS011;1328;52.486;9.860;2022-08-01T03:38:54;23.07;;;21.37;;
2636;SDS011;1328;52.486;9.860;2022-08-01T03:41:21;23.50;;;21.80;;
2636;SDS011;1328;52.486;9.860;2022-08-01T03:43:58;21.93;;;20.33;;
2636;SDS011;1328;52.486;9.860;2022-08-01T03:46:33;21.60;;;20.10;;
2636;SDS011;1328;52.486;9.860;2022-08-01T03:49:03;20.83;;;19.43;;
2636;SDS011;1328;52.486;9.860;2022-08-01T03:51:31;19.57;;;18.17;;
2636;SDS011;1328;52.486;9.860;2022-08-01T03:53:59;18.50;;;17.30;;
2636;SDS011;1328;52.486;9.860;2022-08-01T03:56:25;18.40;;;17.10;;
2636;SDS011;1328;52.486;9.860;2022-08-01T03:58:51;19.50;;;18.20;;
2636;SDS011;1328;52.486;9.860;2022-08-01T04:01:18;22.27;;;20.57;;
2636;SDS011;1328;52.486;9.860;2022-08-01T04:03:45;22.17;;;20.47;;
2636;SDS011;1328;52.486;9.860;2022-08-01T04:06:11;22.60;;;20.90;;
2636;SDS011;1328;52.486;9.860;2022-08-01T04:08:38;22.37;;;20.57;;
2636;SDS011;1328;52.486;9.860;2022-08-01T04:11:05;21.40;;;19.43;;
2636;SDS011;1328;52.486;9.860;2022-08-01T04:13:32;20.77;;;19.00;;
2636;SDS011;1328;52.486;9.860;2022-08-01T04:15:58;26.70;;;24.00;;
2636;SDS011;1328;52.486;9.860;2022-08-01T04:18:24;21.80;;;20.10;;
2636;SDS011;1328;52.486;9.860;2022-08-01T04:20:50;21.27;;;18.93;;
2636;SDS011;1328;52.486;9.860;2022-08-01T04:23:20;20.70;;;18.93;;
2636;SDS011;1328;52.486;9.860;2022-08-01T04:25:48;20.00;;;18.40;;
2636;SDS011;1328;52.486;9.860;2022-08-01T04:28:16;19.20;;;17.40;;
2636;SDS011;1328;52.486;9.860;2022-08-01T04:30:45;19.73;;;17.93;;
2636;SDS011;1328;52.486;9.860;2022-08-01T04:33:13;21.00;;;19.00;;
2636;SDS011;1328;52.486;9.860;2022-08-01T04:35:41;18.77;;;16.83;;
2636;SDS011;1328;52.486;9.860;2022-08-01T04:38:10;18.70;;;16.80;;
2636;SDS011;1328;52.486;9.860;2022-08-01T04:40:37;18.90;;;16.93;;
2636;SDS011;1328;52.486;9.860;2022-08-01T04:43:03;16.70;;;15.10;;
2636;SDS011;1328;52.486;9.860;2022-08-01T04:45:30;18.50;;;14.90;;
2636;SDS011;1328;52.486;9.860;2022-08-01T04:47:57;18.67;;;14.03;;
2636;SDS011;1328;52.486;9.860;2022-08-01T04:50:23;19.30;;;15.50;;
2636;SDS011;1328;52.486;9.860;2022-08-01T04:52:49;17.73;;;15.57;;
2636;SDS011;1328;52.486;9.860;2022-08-01T04:55:16;18.30;;;14.73;;
2636;SDS011;1328;52.486;9.860;2022-08-01T04:57:43;17.83;;;15.23;;
2636;SDS011;1328;52.486;9.860;2022-08-01T05:00:09;17.50;;;15.70;;
2636;SDS011;1328;52.486;9.860;2022-08-01T05:02:36;19.33;;;15.33;;
2636;SDS011;1328;52.486;9.860;2022-08-01T05:05:02;17.60;;;15.87;;
2636;SDS011;1328;52.486;9.860;2022-08-01T05:07:30;19.97;;;15.70;;
2636;SDS011;1328;52.486;9.860;2022-08-01T05:09:56;18.27;;;16.40;;
2636;SDS011;1328;52.486;9.860;2022-08-01T05:12:23;17.43;;;15.60;;
2636;SDS011;1328;52.486;9.860;2022-08-01T05:14:49;17.10;;;15.43;;
2636;SDS011;1328;52.486;9.860;2022-08-01T05:17:15;19.00;;;16.10;;
2636;SDS011;1328;52.486;9.860;2022-08-01T05:19:42;17.73;;;15.83;;
2636;SDS011;1328;52.486;9.860;2022-08-01T05:22:08;17.67;;;15.77;;
2636;SDS011;1328;52.486;9.860;2022-08-01T05:24:35;17.50;;;15.23;;
2636;SDS011;1328;52.486;9.860;2022-08-01T05:27:01;16.80;;;15.20;;
2636;SDS011;1328;52.486;9.860;2022-08-01T05:29:28;21.50;;;19.30;;
2636;SDS011;1328;52.486;9.860;2022-08-01T05:31:54;26.80;;;24.53;;
2636;SDS011;1328;52.486;9.860;2022-08-01T05:34:21;23.97;;;22.03;;
2636;SDS011;1328;52.486;9.860;2022-08-01T05:36:47;22.80;;;21.30;;
2636;SDS011;1328;52.486;9.860;2022-08-01T05:39:13;23.53;;;21.83;;
2636;SDS011;1328;52.486;9.860;2022-08-01T05:41:40;22.67;;;21.10;;
2636;SDS011;1328;52.486;9.860;2022-08-01T05:44:06;23.33;;;21.80;;
2636;SDS011;1328;52.486;9.860;2022-08-01T05:46:33;23.90;;;22.07;;
2636;SDS011;1328;52.486;9.860;2022-08-01T05:48:59;23.60;;;21.90;;
2636;SDS011;1328;52.486;9.860;2022-08-01T05:51:25;23.90;;;22.07;;
2636;SDS011;1328;52.486;9.860;2022-08-01T05:53:52;23.00;;;21.30;;
2636;SDS011;1328;52.486;9.860;2022-08-01T05:56:18;24.50;;;22.80;;
2636;SDS011;1328;52.486;9.860;2022-08-01T05:58:44;24.93;;;23.03;;
2636;SDS011;1328;52.486;9.860;2022-08-01T06:01:11;25.37;;;23.60;;
2636;SDS011;1328;52.486;9.860;2022-08-01T06:03:37;26.27;;;24.33;;
2636;SDS011;1328;52.486;9.860;2022-08-01T06:06:03;25.97;;;23.87;;
2636;SDS011;1328;52.486;9.860;2022-08-01T06:08:30;25.60;;;23.80;;
2636;SDS011;1328;52.486;9.860;2022-08-01T06:10:56;24.90;;;22.93;;
2636;SDS011;1328;52.486;9.860;2022-08-01T06:13:22;24.27;;;22.53;;
2636;SDS011;1328;52.486;9.860;2022-08-01T06:15:48;24.47;;;22.33;;
2636;SDS011;1328;52.486;9.860;2022-08-01T06:18:15;21.20;;;19.80;;
2636;SDS011;1328;52.486;9.860;2022-08-01T06:20:41;22.00;;;20.20;;
2636;SDS011;1328;52.486;9.860;2022-08-01T06:23:07;21.73;;;20.10;;
2636;SDS011;1328;52.486;9.860;2022-08-01T06:25:33;22.57;;;20.87;;
2636;SDS011;1328;52.486;9.860;2022-08-01T06:28:00;23.40;;;21.60;;
2636;SDS011;1328;52.486;9.860;2022-08-01T06:30:26;23.33;;;21.63;;
2636;SDS011;1328;52.486;9.860;2022-08-01T06:32:52;23.00;;;21.20;;
2636;SDS011;1328;52.486;9.860;2022-08-01T06:35:20;21.90;;;20.30;;
2636;SDS011;1328;52.486;9.860;2022-08-01T06:37:47;22.37;;;20.57;;
2636;SDS011;1328;52.486;9.860;2022-08-01T06:40:13;22.73;;;21.17;;
2636;SDS011;1328;52.486;9.860;2022-08-01T06:42:40;23.33;;;21.60;;
2636;SDS011;1328;52.486;9.860;2022-08-01T06:45:10;21.97;;;20.30;;
2636;SDS011;1328;52.486;9.860;2022-08-01T06:47:39;20.83;;;19.23;;
2636;SDS011;1328;52.486;9.860;2022-08-01T06:50:06;20.70;;;19.20;;
2636;SDS011;1328;52.486;9.860;2022-08-01T06:52:32;20.70;;;19.10;;
2636;SDS011;1328;52.486;9.860;2022-08-01T06:54:58;21.80;;;20.30;;
2636;SDS011;1328;52.486;9.860;2022-08-01T06:57:25;21.93;;;20.33;;
2636;SDS011;1328;52.486;9.860;2022-08-01T06:59:51;22.40;;;20.73;;
2636;SDS011;1328;52.486;9.860;2022-08-01T07:02:17;23.13;;;21.53;;
2636;SDS011;1328;52.486;9.860;2022-08-01T07:04:44;22.37;;;20.60;;
2636;SDS011;1328;52.486;9.860;2022-08-01T07:07:10;22.93;;;21.23;;
2636;SDS011;1328;52.486;9.860;2022-08-01T07:09:36;23.33;;;21.63;;
2636;SDS011;1328;52.486;9.860;2022-08-01T07:12:02;24.33;;;22.53;;
2636;SDS011;1328;52.486;9.860;2022-08-01T07:14:29;25.23;;;22.87;;
2636;SDS011;1328;52.486;9.860;2022-08-01T07:16:55;26.00;;;23.67;;
2636;SDS011;1328;52.486;9.860;2022-08-01T07:19:21;27.10;;;25.07;;
2636;SDS011;1328;52.486;9.860;2022-08-01T07:21:47;28.43;;;26.23;;
2636;SDS011;1328;52.486;9.860;2022-08-01T07:24:13;29.47;;;27.33;;
2636;SDS011;1328;52.486;9.860;2022-08-01T07:26:40;33.50;;;30.97;;
2636;SDS011;1328;52.486;9.860;2022-08-01T07:29:06;33.93;;;31.53;;
2636;SDS011;1328;52.486;9.860;2022-08-01T07:31:32;34.10;;;31.47;;
2636;SDS011;1328;52.486;9.860;2022-08-01T07:33:58;35.20;;;32.53;;
2636;SDS011;1328;52.486;9.860;2022-08-01T07:36:24;34.50;;;32.00;;
2636;SDS011;1328;52.486;9.860;2022-08-01T07:38:50;37.10;;;34.40;;
2636;SDS011;1328;52.486;9.860;2022-08-01T07:41:16;36.40;;;33.60;;
2636;SDS011;1328;52.486;9.860;2022-08-01T07:43:43;39.50;;;36.40;;
2636;SDS011;1328;52.486;9.860;2022-08-01T07:46:09;41.43;;;37.93;;
2636;SDS011;1328;52.486;9.860;2022-08-01T07:48:35;45.43;;;41.47;;
2636;SDS011;1328;52.486;9.860;2022-08-01T07:51:01;48.07;;;43.97;;
2636;SDS011;1328;52.486;9.860;2022-08-01T07:53:27;42.53;;;39.00;;
2636;SDS011;1328;52.486;9.860;2022-08-01T07:55:54;41.13;;;37.63;;
2636;SDS011;1328;52.486;9.860;2022-08-01T07:58:20;33.80;;;31.00;;
2636;SDS011;1328;52.486;9.860;2022-08-01T08:00:46;31.90;;;29.20;;
2636;SDS011;1328;52.486;9.860;2022-08-01T08:03:12;28.90;;;26.50;;
2636;SDS011;1328;52.486;9.860;2022-08-01T08:05:38;27.47;;;25.40;;
2636;SDS011;1328;52.486;9.860;2022-08-01T08:08:05;24.27;;;22.37;;
2636;SDS011;1328;52.486;9.860;2022-08-01T08:10:32;24.50;;;22.70;;
2636;SDS011;1328;52.486;9.860;2022-08-01T08:12:58;22.93;;;21.20;;
2636;SDS011;1328;52.486;9.860;2022-08-01T08:15:24;22.80;;;21.30;;
2636;SDS011;1328;52.486;9.860;2022-08-01T08:17:50;23.17;;;21.57;;
2636;SDS011;1328;52.486;9.860;2022-08-01T08:20:16;21.93;;;20.53;;
2636;SDS011;1328;52.486;9.860;2022-08-01T08:22:42;24.93;;;23.23;;
2636;SDS011;1328;52.486;9.860;2022-08-01T08:25:08;32.90;;;30.93;;
2636;SDS011;1328;52.486;9.860;2022-08-01T08:27:35;36.83;;;34.43;;
2636;SDS011;1328;52.486;9.860;2022-08-01T08:30:02;45.50;;;42.93;;
2636;SDS011;1328;52.486;9.860;2022-08-01T08:32:30;52.07;;;49.17;;
2636;SDS011;1328;52.486;9.860;2022-08-01T08:34:56;51.23;;;48.47;;
2636;SDS011;1328;52.486;9.860;2022-08-01T08:37:22;47.80;;;44.97;;
2636;SDS011;1328;52.486;9.860;2022-08-01T08:39:48;42.03;;;39.67;;
2636;SDS011;1328;52.486;9.860;2022-08-01T08:42:14;47.57;;;45.07;;
2636;SDS011;1328;52.486;9.860;2022-08-01T08:44:41;63.13;;;59.93;;
2636;SDS011;1328;52.486;9.860;2022-08-01T08:47:07;66.27;;;62.97;;
2636;SDS011;1328;52.486;9.860;2022-08-01T08:49:34;57.90;;;54.83;;
2636;SDS011;1328;52.486;9.860;2022-08-01T08:52:01;54.00;;;51.10;;
2636;SDS011;1328;52.486;9.860;2022-08-01T08:54:27;56.93;;;53.93;;
2636;SDS011;1328;52.486;9.860;2022-08-01T08:56:55;45.10;;;42.53;;
2636;SDS011;1328;52.486;9.860;2022-08-01T08:59:21;43.73;;;41.27;;
2636;SDS011;1328;52.486;9.860;2022-08-01T09:01:49;40.50;;;38.07;;
2636;SDS011;1328;52.486;9.860;2022-08-01T09:04:16;43.63;;;41.33;;
2636;SDS011;1328;52.486;9.860;2022-08-01T09:06:42;48.83;;;46.00;;
2636;SDS011;1328;52.486;9.860;2022-08-01T09:09:08;110.30;;;105.27;;
2636;SDS011;1328;52.486;9.860;2022-08-01T09:11:35;222.77;;;213.40;;
2636;SDS011;1328;52.486;9.860;2022-08-01T09:16:27;689.10;;;654.60;;
2636;SDS011;1328;52.486;9.860;2022-08-01T09:18:53;766.17;;;725.57;;
2636;SDS011;1328;52.486;9.860;2022-08-01T09:21:20;824.50;;;778.87;;
2636;SDS011;1328;52.486;9.860;2022-08-01T09:23:50;765.83;;;725.10;;
2636;SDS011;1328;52.486;9.860;2022-08-01T09:26:17;811.00;;;767.20;;
2636;SDS011;1328;52.486;9.860;2022-08-01T09:28:44;816.27;;;770.63;;
2636;SDS011;1328;52.486;9.860;2022-08-01T09:31:15;811.90;;;766.67;;
2636;SDS011;1328;52.486;9.860;2022-08-01T09:36:17;810.47;;;766.23;;
2636;SDS011;1328;52.486;9.860;2022-08-01T09:38:43;917.23;;;862.87;;
2636;SDS011;1328;52.486;9.860;2022-08-01T09:41:09;1062.27;;;992.03;;
2636;SDS011;1328;52.486;9.860;2022-08-01T09:43:36;1117.00;;;999.90;;
2636;SDS011;1328;52.486;9.860;2022-08-01T09:46:09;1193.80;;;999.90;;
2636;SDS011;1328;52.486;9.860;2022-08-01T09:48:38;1215.13;;;999.90;;
2636;SDS011;1328;52.486;9.860;2022-08-01T09:51:05;1190.97;;;999.90;;
2636;SDS011;1328;52.486;9.860;2022-08-01T09:53:42;1116.83;;;999.90;;
2636;SDS011;1328;52.486;9.860;2022-08-01T09:56:09;1062.93;;;993.50;;
2636;SDS011;1328;52.486;9.860;2022-08-01T09:59:17;1061.87;;;990.93;;
2636;SDS011;1328;52.486;9.860;2022-08-01T10:01:25;1091.53;;;999.90;;
2636;SDS011;1328;52.486;9.860;2022-08-01T10:04:04;1080.37;;;999.90;;
2636;SDS011;1328;52.486;9.860;2022-08-01T10:06:30;1068.00;;;996.17;;
2636;SDS011;1328;52.486;9.860;2022-08-01T10:08:56;1041.23;;;973.73;;
2636;SDS011;1328;52.486;9.860;2022-08-01T10:11:22;1056.70;;;989.20;;
2636;SDS011;1328;52.486;9.860;2022-08-01T10:13:49;993.70;;;931.57;;
2636;SDS011;1328;52.486;9.860;2022-08-01T10:16:16;969.50;;;910.37;;
2636;SDS011;1328;52.486;9.860;2022-08-01T10:18:42;1002.60;;;941.93;;
2636;SDS011;1328;52.486;9.860;2022-08-01T10:21:09;905.80;;;849.77;;
2636;SDS011;1328;52.486;9.860;2022-08-01T10:23:36;1019.40;;;954.47;;
2636;SDS011;1328;52.486;9.860;2022-08-01T10:26:02;1143.47;;;999.90;;
2636;SDS011;1328;52.486;9.860;2022-08-01T10:28:30;1187.63;;;999.90;;
2636;SDS011;1328;52.486;9.860;2022-08-01T10:30:57;1178.70;;;999.90;;
2636;SDS011;1328;52.486;9.860;2022-08-01T10:33:23;1174.00;;;999.90;;
2636;SDS011;1328;52.486;9.860;2022-08-01T10:35:50;1187.47;;;999.90;;
2636;SDS011;1328;52.486;9.860;2022-08-01T10:38:16;1169.93;;;999.90;;
2636;SDS011;1328;52.486;9.860;2022-08-01T10:40:43;1129.30;;;999.90;;
2636;SDS011;1328;52.486;9.860;2022-08-01T10:43:09;1157.23;;;999.90;;
2636;SDS011;1328;52.486;9.860;2022-08-01T10:45:35;1117.40;;;999.90;;
2636;SDS011;1328;52.486;9.860;2022-08-01T10:48:06;1191.97;;;999.90;;
2636;SDS011;1328;52.486;9.860;2022-08-01T10:50:40;1211.73;;;999.90;;
2636;SDS011;1328;52.486;9.860;2022-08-01T10:55:49;1316.13;;;999.90;;
2636;SDS011;1328;52.486;9.860;2022-08-01T10:58:26;1270.53;;;999.90;;
2636;SDS011;1328;52.486;9.860;2022-08-01T11:03:38;1186.07;;;999.90;;
2636;SDS011;1328;52.486;9.860;2022-08-01T11:06:04;1242.53;;;999.90;;
2636;SDS011;1328;52.486;9.860;2022-08-01T11:08:30;1185.00;;;999.90;;
2636;SDS011;1328;52.486;9.860;2022-08-01T11:11:00;1113.20;;;999.90;;
2636;SDS011;1328;52.486;9.860;2022-08-01T11:18:56;495.70;;;466.20;;
2636;SDS011;1328;52.486;9.860;2022-08-01T11:21:22;812.13;;;759.50;;
2636;SDS011;1328;52.486;9.860;2022-08-01T11:24:08;580.30;;;543.90;;
2636;SDS011;1328;52.486;9.860;2022-08-01T11:26:34;762.97;;;713.10;;
2636;SDS011;1328;52.486;9.860;2022-08-01T11:29:13;815.17;;;762.63;;
2636;SDS011;1328;52.486;9.860;2022-08-01T11:31:40;617.10;;;579.80;;
2636;SDS011;1328;52.486;9.860;2022-08-01T11:34:06;585.87;;;551.33;;
2636;SDS011;1328;52.486;9.860;2022-08-01T11:36:32;395.67;;;369.23;;
2636;SDS011;1328;52.486;9.860;2022-08-01T11:41:31;465.87;;;438.83;;
2636;SDS011;1328;52.486;9.860;2022-08-01T11:44:20;485.13;;;457.33;;
2636;SDS011;1328;52.486;9.860;2022-08-01T11:46:48;601.03;;;561.40;;
2636;SDS011;1328;52.486;9.860;2022-08-01T11:49:28;706.17;;;662.30;;
2636;SDS011;1328;52.486;9.860;2022-08-01T11:51:58;795.27;;;743.93;;
2636;SDS011;1328;52.486;9.860;2022-08-01T11:54:26;702.97;;;658.93;;
2636;SDS011;1328;52.486;9.860;2022-08-01T11:56:54;672.90;;;633.37;;
2636;SDS011;1328;52.486;9.860;2022-08-01T11:59:21;758.27;;;711.30;;
2636;SDS011;1328;52.486;9.860;2022-08-01T12:01:47;812.97;;;761.80;;
2636;SDS011;1328;52.486;9.860;2022-08-01T12:04:13;821.87;;;768.60;;
2636;SDS011;1328;52.486;9.860;2022-08-01T12:06:39;774.73;;;724.87;;
2636;SDS011;1328;52.486;9.860;2022-08-01T12:09:19;808.67;;;756.30;;
2636;SDS011;1328;52.486;9.860;2022-08-01T12:11:45;748.60;;;703.97;;
2636;SDS011;1328;52.486;9.860;2022-08-01T12:14:15;789.73;;;740.10;;
2636;SDS011;1328;52.486;9.860;2022-08-01T12:16:47;712.83;;;668.13;;
2636;SDS011;1328;52.486;9.860;2022-08-01T12:19:18;666.20;;;624.87;;
2636;SDS011;1328;52.486;9.860;2022-08-01T12:21:44;329.20;;;306.97;;
2636;SDS011;1328;52.486;9.860;2022-08-01T12:24:10;800.43;;;750.13;;
2636;SDS011;1328;52.486;9.860;2022-08-01T12:26:42;763.03;;;715.00;;
2636;SDS011;1328;52.486;9.860;2022-08-01T12:29:08;764.50;;;716.97;;
2636;SDS011;1328;52.486;9.860;2022-08-01T12:31:34;740.70;;;695.00;;
2636;SDS011;1328;52.486;9.860;2022-08-01T12:36:46;722.20;;;677.00;;
2636;SDS011;1328;52.486;9.860;2022-08-01T12:39:12;457.90;;;427.37;;
2636;SDS011;1328;52.486;9.860;2022-08-01T12:41:38;261.90;;;245.00;;
2636;SDS011;1328;52.486;9.860;2022-08-01T12:44:12;225.17;;;209.70;;
2636;SDS011;1328;52.486;9.860;2022-08-01T12:46:38;219.70;;;204.50;;
2636;SDS011;1328;52.486;9.860;2022-08-01T12:49:04;99.97;;;83.10;;
2636;SDS011;1328;52.486;9.860;2022-08-01T12:51:31;171.17;;;157.73;;
2636;SDS011;1328;52.486;9.860;2022-08-01T12:54:00;351.93;;;330.87;;
2636;SDS011;1328;52.486;9.860;2022-08-01T12:56:32;354.03;;;332.13;;
2636;SDS011;1328;52.486;9.860;2022-08-01T12:58:59;150.93;;;137.67;;
2636;SDS011;1328;52.486;9.860;2022-08-01T13:01:25;561.10;;;529.40;;
2636;SDS011;1328;52.486;9.860;2022-08-01T13:04:02;122.80;;;111.13;;
2636;SDS011;1328;52.486;9.860;2022-08-01T13:06:29;158.87;;;145.60;;
2636;SDS011;1328;52.486;9.860;2022-08-01T13:09:04;259.53;;;242.20;;
2636;SDS011;1328;52.486;9.860;2022-08-01T13:11:30;187.23;;;172.63;;
2636;SDS011;1328;52.486;9.860;2022-08-01T13:13:56;250.50;;;233.50;;
2636;SDS011;1328;52.486;9.860;2022-08-01T13:16:23;567.47;;;532.70;;
2636;SDS011;1328;52.486;9.860;2022-08-01T13:18:50;423.13;;;395.67;;
2636;SDS011;1328;52.486;9.860;2022-08-01T13:21:17;623.93;;;583.90;;
2636;SDS011;1328;52.486;9.860;2022-08-01T13:29:17;615.37;;;577.97;;
2636;SDS011;1328;52.486;9.860;2022-08-01T13:31:43;608.83;;;570.43;;
2636;SDS011;1328;52.486;9.860;2022-08-01T13:34:09;859.10;;;804.00;;
2636;SDS011;1328;52.486;9.860;2022-08-01T13:36:36;723.60;;;677.10;;
2636;SDS011;1328;52.486;9.860;2022-08-01T13:39:02;298.97;;;276.73;;
2636;SDS011;1328;52.486;9.860;2022-08-01T13:41:47;115.17;;;103.87;;
2636;SDS011;1328;52.486;9.860;2022-08-01T13:44:13;274.70;;;255.53;;
2636;SDS011;1328;52.486;9.860;2022-08-01T13:46:40;140.73;;;127.67;;
2636;SDS011;1328;52.486;9.860;2022-08-01T13:49:07;149.97;;;137.13;;
2636;SDS011;1328;52.486;9.860;2022-08-01T13:51:34;227.90;;;210.77;;
2636;SDS011;1328;52.486;9.860;2022-08-01T13:54:00;570.73;;;529.00;;
2636;SDS011;1328;52.486;9.860;2022-08-01T13:56:26;544.43;;;509.13;;
2636;SDS011;1328;52.486;9.860;2022-08-01T13:58:53;515.90;;;481.30;;
2636;SDS011;1328;52.486;9.860;2022-08-01T14:01:19;719.73;;;674.53;;
2636;SDS011;1328;52.486;9.860;2022-08-01T14:03:46;410.27;;;382.57;;
2636;SDS011;1328;52.486;9.860;2022-08-01T14:06:12;254.40;;;235.33;;
2636;SDS011;1328;52.486;9.860;2022-08-01T14:08:40;372.07;;;346.07;;
2636;SDS011;1328;52.486;9.860;2022-08-01T14:11:06;694.90;;;650.40;;
2636;SDS011;1328;52.486;9.860;2022-08-01T14:13:32;840.73;;;785.33;;
2636;SDS011;1328;52.486;9.860;2022-08-01T14:15:59;267.67;;;247.80;;
2636;SDS011;1328;52.486;9.860;2022-08-01T14:18:25;667.97;;;627.27;;
2636;SDS011;1328;52.486;9.860;2022-08-01T14:20:51;189.93;;;173.57;;
2636;SDS011;1328;52.486;9.860;2022-08-01T14:23:18;97.00;;;79.13;;
2636;SDS011;1328;52.486;9.860;2022-08-01T14:25:44;439.00;;;410.83;;
2636;SDS011;1328;52.486;9.860;2022-08-01T14:28:10;96.43;;;71.57;;
2636;SDS011;1328;52.486;9.860;2022-08-01T14:30:36;97.33;;;86.83;;
2636;SDS011;1328;52.486;9.860;2022-08-01T14:33:02;104.90;;;83.90;;
2636;SDS011;1328;52.486;9.860;2022-08-01T14:35:28;194.30;;;177.40;;
2636;SDS011;1328;52.486;9.860;2022-08-01T14:37:54;134.63;;;121.23;;
2636;SDS011;1328;52.486;9.860;2022-08-01T14:40:20;164.90;;;149.93;;
2636;SDS011;1328;52.486;9.860;2022-08-01T14:42:46;114.97;;;103.60;;
2636;SDS011;1328;52.486;9.860;2022-08-01T14:45:13;309.07;;;290.90;;
2636;SDS011;1328;52.486;9.860;2022-08-01T14:47:39;153.17;;;140.03;;
2636;SDS011;1328;52.486;9.860;2022-08-01T14:50:06;421.03;;;398.23;;
2636;SDS011;1328;52.486;9.860;2022-08-01T14:52:33;230.73;;;215.07;;
2636;SDS011;1328;52.486;9.860;2022-08-01T14:54:59;210.20;;;195.43;;
2636;SDS011;1328;52.486;9.860;2022-08-01T14:57:25;397.40;;;375.13;;
2636;SDS011;1328;52.486;9.860;2022-08-01T14:59:51;220.27;;;204.53;;
2636;SDS011;1328;52.486;9.860;2022-08-01T15:02:17;268.87;;;252.37;;
2636;SDS011;1328;52.486;9.860;2022-08-01T15:04:47;450.03;;;424.50;;
2636;SDS011;1328;52.486;9.860;2022-08-01T15:07:13;370.70;;;348.13;;
2636;SDS011;1328;52.486;9.860;2022-08-01T15:09:40;433.67;;;408.43;;
2636;SDS011;1328;52.486;9.860;2022-08-01T15:12:07;623.83;;;590.20;;
2636;SDS011;1328;52.486;9.860;2022-08-01T15:14:33;516.07;;;487.07;;
2636;SDS011;1328;52.486;9.860;2022-08-01T15:17:15;372.73;;;350.57;;
2636;SDS011;1328;52.486;9.860;2022-08-01T15:19:41;471.30;;;444.50;;
2636;SDS011;1328;52.486;9.860;2022-08-01T15:22:08;244.17;;;227.33;;
2636;SDS011;1328;52.486;9.860;2022-08-01T15:24:34;590.10;;;557.77;;
2636;SDS011;1328;52.486;9.860;2022-08-01T15:27:00;374.10;;;351.73;;